Pagina principale
METAR-TAF:

METAR-TAF

Aeroporti :

Aeroporto di Treviso-Sant'Angelo

Treviso, Italia

latitudine: 45-39N, longitudine: 012-11E, altezza: 18 m

Osservazione

Il bollettino è stato emesso 23 minuti fa, alle 03:50 UTC
Vento 2 kt da nord/nord-est
Temperature 7°C
Umidità 81%
Pressione 1023 hPa
Visibilità 10 km o più

METAR: LIPH 270350Z AUTO 03002KT 9999 SCT180/// 07/04 Q1023

Ora: 05:13 (04:13 UTC)

Previsione

Il bollettino è stato emesso 5 ore e 13 minuti fa, alle 23:00 UTC
Previsione valida dal 27 alle 00 UTC al 27 alle 24 UTC
Vento 4 kt da direzioni variabili
Visibilità: 7000 m
Temporaneamente
dal 27 alle 00 UTC al 27 alle 07 UTC
Visibilità: 4000 m
foschia
Evoluzione graduale
dal 27 alle 08 UTC al 27 alle 10 UTC
Vento 10 kt da est/nord-est

TAF: LIPH 262300Z 2700/2724 VRB04KT 7000 NSC TEMPO 2700/2707 4000 BR BECMG 2708/2710 06010KT

Osservazioni e previsioni meteorologiche di più di 4000 aeroporti (messaggi METAR e TAF).

Le stazioni disponibili sono rappresentate dai dischi gialli e rossi sulla carta.

Puntare il mouse per vedere il nome della stazione.

Clicca sopra per visualizzare le osservazioni e previsioni meteorologiche.

Per cambiare la mappa : fare clic sui pulsanti verdi con una croce nera per ingrandire, il pulsante verde con un trattino per diminuire, o sulla freccia verde per le mappe adiacenti.


METAR-TAF: